Time;durP1;ratioP1;P1;durP2;ratioP2;P2;SDS_P1;SDS_P2;PMS_P1;PMS_P2;Temp;Humidity;BMP_temperature;BMP_pressure;BME280_temperature;BME280_humidity;BME280_pressure;Samples;Min_cycle;Max_cycle;Signal;HPM_P1;HPM_P2
2022/01/04 00:02:23;;;;;;;8.85;1.42;;;;;;;;;;5080230;28;20092;-65
2022/01/04 00:04:57;;;;;;;9.05;1.75;;;;;;;;;;5057296;28;20052;-65
2022/01/04 00:07:23;;;;;;;25.13;2.88;;;;;;;;;;5058040;28;20645;-65
2022/01/04 00:09:52;;;;;;;9.30;1.55;;;;;;;;;;5058039;28;20127;-65
2022/01/04 00:15:07;;;;;;;10.95;1.90;;;;;;;;;;5061809;28;20079;-65
2022/01/04 00:17:37;;;;;;;9.15;2.58;;;;;;;;;;5057939;28;20547;-65
2022/01/04 00:20:05;;;;;;;12.23;2.10;;;;;;;;;;5059631;28;20143;-65
2022/01/04 00:22:31;;;;;;;11.32;1.58;;;;;;;;;;5056389;28;20087;-65
2022/01/04 00:25:05;;;;;;;16.67;1.65;;;;;;;;;;5058863;28;20077;-65
2022/01/04 00:27:31;;;;;;;9.88;1.42;;;;;;;;;;5076248;28;20403;-65
2022/01/04 00:29:58;;;;;;;13.90;1.70;;;;;;;;;;5082417;28;20087;-65
2022/01/04 00:32:24;;;;;;;25.60;2.47;;;;;;;;;;5083406;28;20135;-65
2022/01/04 00:34:52;;;;;;;11.70;2.22;;;;;;;;;;5078386;28;20189;-65
2022/01/04 00:37:19;;;;;;;11.98;1.73;;;;;;;;;;5073284;28;20099;-65
2022/01/04 00:39:45;;;;;;;20.10;2.15;;;;;;;;;;5079111;28;20090;-65
2022/01/04 00:42:11;;;;;;;22.08;2.47;;;;;;;;;;5079984;28;20128;-66
2022/01/04 00:44:38;;;;;;;18.60;2.53;;;;;;;;;;5075373;28;20132;-66
2022/01/04 00:47:08;;;;;;;16.92;1.88;;;;;;;;;;5054879;28;20081;-65
2022/01/04 00:49:34;;;;;;;14.13;2.38;;;;;;;;;;5060014;28;20056;-65
2022/01/04 00:52:01;;;;;;;10.40;2.00;;;;;;;;;;5057438;28;20493;-65
2022/01/04 00:54:28;;;;;;;19.33;2.13;;;;;;;;;;5058152;28;20127;-65
2022/01/04 00:56:54;;;;;;;18.42;2.30;;;;;;;;;;5059047;28;20080;-65
2022/01/04 00:59:22;;;;;;;17.45;2.05;;;;;;;;;;5061530;28;20103;-66
2022/01/04 01:01:49;;;;;;;17.70;1.92;;;;;;;;;;5061230;28;20136;-66
2022/01/04 01:04:18;;;;;;;19.05;2.00;;;;;;;;;;5054185;28;20489;-66
2022/01/04 01:06:45;;;;;;;16.17;2.25;;;;;;;;;;5052666;28;20049;-66
2022/01/04 01:09:11;;;;;;;19.25;1.98;;;;;;;;;;5055018;28;20083;-66
2022/01/04 01:11:38;;;;;;;13.25;2.30;;;;;;;;;;5060637;28;20163;-66
2022/01/04 01:14:05;;;;;;;11.30;1.55;;;;;;;;;;5061351;28;20091;-66
2022/01/04 01:16:31;;;;;;;10.77;1.83;;;;;;;;;;5059894;28;20131;-66
2022/01/04 01:18:58;;;;;;;13.63;1.98;;;;;;;;;;5065879;28;20052;-66
2022/01/04 01:21:24;;;;;;;14.88;2.63;;;;;;;;;;5059129;28;20080;-66
2022/01/04 01:23:52;;;;;;;33.13;2.85;;;;;;;;;;5060716;28;20047;-67
2022/01/04 01:26:19;;;;;;;17.50;2.30;;;;;;;;;;5062491;28;20084;-66
2022/01/04 01:28:45;;;;;;;26.58;3.42;;;;;;;;;;5060397;28;20124;-67
2022/01/04 01:31:18;;;;;;;18.73;2.30;;;;;;;;;;5061231;28;20127;-66
2022/01/04 01:33:45;;;;;;;9.47;1.47;;;;;;;;;;5060893;28;20071;-66
2022/01/04 01:36:11;;;;;;;21.33;2.07;;;;;;;;;;5061083;28;20128;-66
2022/01/04 01:38:45;;;;;;;19.52;2.85;;;;;;;;;;5058059;28;20618;-66
2022/01/04 01:41:11;;;;;;;18.23;2.83;;;;;;;;;;5059650;28;20095;-66
2022/01/04 01:43:38;;;;;;;17.67;2.33;;;;;;;;;;5061103;28;20075;-67
2022/01/04 01:46:06;;;;;;;15.85;2.38;;;;;;;;;;5066216;28;20140;-67
2022/01/04 01:48:33;;;;;;;12.90;1.50;;;;;;;;;;5060478;28;20049;-66
2022/01/04 01:50:59;;;;;;;16.63;2.27;;;;;;;;;;5058141;28;20136;-66
2022/01/04 01:53:26;;;;;;;25.20;2.53;;;;;;;;;;5058081;28;21289;-66
2022/01/04 01:55:52;;;;;;;24.73;2.40;;;;;;;;;;5059040;28;20133;-66
2022/01/04 01:58:19;;;;;;;10.07;2.05;;;;;;;;;;5058104;28;20133;-66
2022/01/04 02:00:45;;;;;;;9.88;2.42;;;;;;;;;;5055963;28;20064;-66
2022/01/04 02:03:12;;;;;;;23.27;2.60;;;;;;;;;;5057273;28;20421;-67
2022/01/04 02:05:39;;;;;;;13.00;1.92;;;;;;;;;;5058195;28;20045;-66
2022/01/04 02:08:06;;;;;;;21.63;2.80;;;;;;;;;;5060048;28;20049;-66
2022/01/04 02:10:32;;;;;;;23.27;4.10;;;;;;;;;;5057962;28;20044;-66
2022/01/04 02:12:59;;;;;;;17.10;1.75;;;;;;;;;;5064511;28;20051;-68
2022/01/04 02:15:28;;;;;;;11.95;2.05;;;;;;;;;;5052404;28;20165;-66
2022/01/04 02:17:55;;;;;;;22.60;2.35;;;;;;;;;;5039359;28;20132;-66
2022/01/04 02:20:21;;;;;;;20.90;2.43;;;;;;;;;;5056422;28;20549;-66
2022/01/04 02:22:49;;;;;;;26.65;3.30;;;;;;;;;;5060588;28;20072;-66
2022/01/04 02:25:16;;;;;;;18.77;2.75;;;;;;;;;;5061114;28;20049;-66
2022/01/04 02:27:42;;;;;;;20.90;2.65;;;;;;;;;;5056958;28;20560;-66
2022/01/04 02:30:16;;;;;;;24.00;2.28;;;;;;;;;;5060705;28;20071;-66
2022/01/04 02:32:44;;;;;;;21.25;2.33;;;;;;;;;;5060903;28;20045;-66
2022/01/04 02:35:11;;;;;;;22.00;2.78;;;;;;;;;;5057949;28;20143;-66
2022/01/04 02:37:44;;;;;;;18.27;2.85;;;;;;;;;;5061363;28;20456;-66
2022/01/04 02:40:11;;;;;;;24.48;2.83;;;;;;;;;;5062203;28;20056;-66
2022/01/04 02:42:38;;;;;;;24.52;3.05;;;;;;;;;;5059848;28;20040;-66
2022/01/04 02:45:11;;;;;;;17.30;2.63;;;;;;;;;;5061337;28;20132;-66
2022/01/04 02:47:39;;;;;;;21.30;2.70;;;;;;;;;;5061598;28;20075;-66
2022/01/04 02:50:06;;;;;;;24.75;3.50;;;;;;;;;;5060817;28;20049;-66
2022/01/04 02:52:34;;;;;;;30.23;2.72;;;;;;;;;;5058115;28;20090;-66
2022/01/04 02:55:03;;;;;;;18.17;2.53;;;;;;;;;;5062395;28;20144;-66
2022/01/04 02:57:29;;;;;;;18.05;2.70;;;;;;;;;;5063681;28;20185;-66
2022/01/04 03:00:07;;;;;;;27.85;2.95;;;;;;;;;;5060964;28;20084;-66
2022/01/04 03:02:34;;;;;;;34.10;2.80;;;;;;;;;;5044026;28;20137;-66
2022/01/04 03:05:01;;;;;;;28.95;3.10;;;;;;;;;;5061248;28;20057;-66
2022/01/04 03:07:27;;;;;;;21.15;3.85;;;;;;;;;;5059448;28;20053;-66
2022/01/04 03:09:54;;;;;;;23.58;2.90;;;;;;;;;;5056716;28;20244;-66
2022/01/04 03:12:21;;;;;;;27.60;2.97;;;;;;;;;;5058788;28;20095;-66
2022/01/04 03:14:47;;;;;;;25.15;2.53;;;;;;;;;;5060011;28;20159;-66
2022/01/04 03:17:14;;;;;;;27.00;2.40;;;;;;;;;;5056942;28;20128;-66
2022/01/04 03:19:40;;;;;;;21.70;2.90;;;;;;;;;;5056883;28;20593;-66
2022/01/04 03:22:06;;;;;;;20.67;2.27;;;;;;;;;;5056707;28;20469;-66
2022/01/04 03:24:33;;;;;;;34.20;3.10;;;;;;;;;;5059681;28;20852;-67
2022/01/04 03:27:00;;;;;;;30.13;3.35;;;;;;;;;;5059036;28;20084;-66
2022/01/04 03:29:26;;;;;;;28.03;3.00;;;;;;;;;;5058408;28;20714;-67
2022/01/04 03:31:54;;;;;;;22.90;2.97;;;;;;;;;;5061152;28;20127;-66
2022/01/04 03:34:21;;;;;;;22.40;3.00;;;;;;;;;;5064217;28;20465;-66
2022/01/04 03:36:48;;;;;;;25.55;3.03;;;;;;;;;;5052842;28;20120;-67
2022/01/04 03:39:15;;;;;;;28.25;2.78;;;;;;;;;;5062902;28;20056;-67
2022/01/04 03:41:43;;;;;;;22.65;2.83;;;;;;;;;;5057333;28;20135;-66
2022/01/04 03:44:20;;;;;;;30.63;3.83;;;;;;;;;;5055204;28;20145;-66
2022/01/04 03:46:47;;;;;;;24.92;3.22;;;;;;;;;;5054371;28;20120;-67
2022/01/04 03:49:13;;;;;;;27.55;2.88;;;;;;;;;;5061604;28;20052;-66
2022/01/04 03:51:46;;;;;;;18.67;2.35;;;;;;;;;;5058219;28;20457;-66
2022/01/04 03:54:13;;;;;;;24.02;2.95;;;;;;;;;;5057574;28;20136;-66
2022/01/04 03:56:40;;;;;;;34.67;3.28;;;;;;;;;;5057040;28;20073;-66
2022/01/04 03:59:12;;;;;;;31.02;2.97;;;;;;;;;;5062830;28;20139;-66
2022/01/04 04:01:39;;;;;;;29.02;3.15;;;;;;;;;;5063230;28;20456;-66
2022/01/04 04:04:05;;;;;;;33.13;3.77;;;;;;;;;;5054460;28;20084;-67
2022/01/04 04:06:32;;;;;;;33.63;4.53;;;;;;;;;;5056674;28;20146;-66
2022/01/04 04:08:58;;;;;;;32.13;3.42;;;;;;;;;;5058076;28;20127;-66
2022/01/04 04:11:25;;;;;;;28.92;4.13;;;;;;;;;;5056326;28;20088;-66
2022/01/04 04:13:55;;;;;;;29.67;2.63;;;;;;;;;;5058730;28;20052;-66
2022/01/04 04:16:22;;;;;;;33.00;3.53;;;;;;;;;;5056772;28;20568;-66
2022/01/04 04:18:49;;;;;;;25.40;3.25;;;;;;;;;;5055460;28;20048;-66
2022/01/04 04:21:21;;;;;;;23.52;2.80;;;;;;;;;;5057276;28;20049;-66
2022/01/04 04:23:48;;;;;;;25.45;2.85;;;;;;;;;;5058845;28;20132;-67
2022/01/04 04:26:14;;;;;;;31.38;3.70;;;;;;;;;;5056703;28;20127;-67
2022/01/04 04:28:47;;;;;;;27.90;3.63;;;;;;;;;;5058406;28;20080;-66
2022/01/04 04:31:14;;;;;;;30.60;3.92;;;;;;;;;;5056600;28;20131;-66
2022/01/04 04:33:40;;;;;;;25.50;3.10;;;;;;;;;;5056670;28;20040;-66
2022/01/04 04:36:09;;;;;;;28.08;2.75;;;;;;;;;;5059949;28;20331;-67
2022/01/04 04:38:35;;;;;;;15.85;2.63;;;;;;;;;;5053109;28;20103;-67
2022/01/04 04:41:02;;;;;;;30.55;3.53;;;;;;;;;;5053135;28;20140;-66
2022/01/04 04:43:28;;;;;;;30.80;2.80;;;;;;;;;;5058230;28;20123;-66
2022/01/04 04:45:55;;;;;;;21.27;3.00;;;;;;;;;;5069248;28;20067;-67
2022/01/04 04:48:21;;;;;;;22.27;3.60;;;;;;;;;;5060895;28;20513;-67
2022/01/04 04:50:48;;;;;;;33.08;3.72;;;;;;;;;;5060122;28;20387;-66
2022/01/04 04:53:14;;;;;;;41.45;3.97;;;;;;;;;;5058198;28;20099;-66
2022/01/04 04:55:41;;;;;;;23.00;2.95;;;;;;;;;;5057664;28;20088;-66
2022/01/04 04:58:10;;;;;;;26.55;2.90;;;;;;;;;;5065138;28;20123;-66
2022/01/04 05:00:36;;;;;;;27.48;3.22;;;;;;;;;;5058650;28;20475;-67
2022/01/04 05:03:03;;;;;;;32.30;3.38;;;;;;;;;;5061968;28;20048;-66
2022/01/04 05:05:30;;;;;;;23.33;3.33;;;;;;;;;;5062334;28;20053;-66
2022/01/04 05:07:56;;;;;;;35.95;3.15;;;;;;;;;;5061217;28;20132;-67
2022/01/04 05:10:23;;;;;;;26.70;3.25;;;;;;;;;;5060090;28;20520;-66
2022/01/04 05:12:51;;;;;;;30.90;3.47;;;;;;;;;;5057601;28;20111;-66
2022/01/04 05:15:18;;;;;;;30.30;2.88;;;;;;;;;;5062632;28;20127;-66
2022/01/04 05:17:44;;;;;;;37.83;3.15;;;;;;;;;;5060291;28;20129;-66
2022/01/04 05:20:13;;;;;;;36.70;3.35;;;;;;;;;;5057727;28;20096;-66
2022/01/04 05:22:40;;;;;;;29.17;3.15;;;;;;;;;;5060594;28;20488;-66
2022/01/04 05:25:06;;;;;;;31.77;3.35;;;;;;;;;;5062035;28;20132;-67
2022/01/04 05:27:33;;;;;;;21.15;2.10;;;;;;;;;;5057270;28;20123;-67
2022/01/04 05:30:00;;;;;;;39.75;3.83;;;;;;;;;;5060048;28;20076;-67
2022/01/04 05:32:26;;;;;;;29.65;3.20;;;;;;;;;;5058408;28;20181;-67
2022/01/04 05:34:59;;;;;;;27.65;3.47;;;;;;;;;;5060335;28;20531;-67
2022/01/04 05:37:26;;;;;;;35.75;5.00;;;;;;;;;;5060037;28;20123;-67
2022/01/04 05:39:52;;;;;;;26.77;3.50;;;;;;;;;;5063220;28;20143;-67
2022/01/04 05:42:21;;;;;;;36.30;4.18;;;;;;;;;;5056097;28;20045;-67
2022/01/04 05:44:47;;;;;;;27.13;3.08;;;;;;;;;;5057725;28;20469;-67
2022/01/04 05:47:13;;;;;;;43.92;3.95;;;;;;;;;;5057832;28;20084;-67
2022/01/04 05:49:46;;;;;;;26.88;4.25;;;;;;;;;;5060327;28;20048;-67
2022/01/04 05:52:13;;;;;;;26.73;2.80;;;;;;;;;;5062947;28;20661;-67
2022/01/04 05:54:41;;;;;;;28.73;2.90;;;;;;;;;;5058148;28;20751;-67
2022/01/04 05:57:11;;;;;;;24.65;3.22;;;;;;;;;;5060286;28;20465;-67
2022/01/04 05:59:38;;;;;;;39.22;4.85;;;;;;;;;;5069156;28;20144;-67
2022/01/04 06:02:04;;;;;;;44.42;5.88;;;;;;;;;;5061891;28;20064;-66
2022/01/04 06:04:31;;;;;;;38.57;4.33;;;;;;;;;;5060059;28;20053;-67
2022/01/04 06:06:58;;;;;;;42.72;4.18;;;;;;;;;;5060389;28;20144;-67
2022/01/04 06:09:28;;;;;;;16.58;2.53;;;;;;;;;;5059757;28;20076;-67
2022/01/04 06:11:59;;;;;;;36.20;3.83;;;;;;;;;;5061223;28;20053;-67
2022/01/04 06:17:11;;;;;;;42.10;4.05;;;;;;;;;;5060640;28;20132;-67
2022/01/04 06:19:38;;;;;;;35.53;4.28;;;;;;;;;;5062471;28;20132;-67
2022/01/04 06:22:05;;;;;;;31.35;2.85;;;;;;;;;;5059490;28;20080;-67
2022/01/04 06:24:32;;;;;;;38.80;3.83;;;;;;;;;;5061357;28;20132;-67
2022/01/04 06:26:58;;;;;;;31.30;3.65;;;;;;;;;;5061237;28;20123;-67
2022/01/04 06:29:25;;;;;;;54.22;3.97;;;;;;;;;;5075653;28;20048;-67
2022/01/04 06:31:58;;;;;;;27.00;3.22;;;;;;;;;;5061130;28;20615;-67
2022/01/04 06:34:24;;;;;;;26.60;3.30;;;;;;;;;;5060953;28;20057;-67
2022/01/04 06:36:51;;;;;;;28.50;4.15;;;;;;;;;;5063869;28;20076;-67
2022/01/04 06:39:21;;;;;;;42.58;4.00;;;;;;;;;;5057161;28;20055;-67
2022/01/04 06:41:47;;;;;;;26.73;2.58;;;;;;;;;;5058488;28;20079;-67
2022/01/04 06:44:14;;;;;;;31.52;3.40;;;;;;;;;;5054863;28;20040;-67
2022/01/04 06:46:46;;;;;;;33.90;3.85;;;;;;;;;;5058046;28;20148;-67
2022/01/04 06:49:14;;;;;;;34.92;3.60;;;;;;;;;;5059097;28;20076;-67
2022/01/04 06:51:41;;;;;;;34.80;3.95;;;;;;;;;;5065308;28;20128;-67
2022/01/04 06:54:11;;;;;;;39.75;4.15;;;;;;;;;;5081046;28;20044;-67
2022/01/04 06:56:37;;;;;;;34.88;3.30;;;;;;;;;;5079203;28;20083;-67
2022/01/04 06:59:04;;;;;;;39.83;3.60;;;;;;;;;;5080262;28;20076;-67
2022/01/04 07:01:33;;;;;;;29.33;4.30;;;;;;;;;;5079465;28;20529;-66
2022/01/04 07:04:00;;;;;;;35.20;4.15;;;;;;;;;;5059303;28;20092;-66
2022/01/04 07:06:26;;;;;;;30.63;3.58;;;;;;;;;;5058256;28;20137;-66
2022/01/04 07:08:53;;;;;;;33.90;4.55;;;;;;;;;;5058491;28;20841;-66
2022/01/04 07:11:20;;;;;;;33.17;4.07;;;;;;;;;;5057894;28;20412;-66
2022/01/04 07:13:46;;;;;;;37.92;4.78;;;;;;;;;;5062365;28;20291;-66
2022/01/04 07:16:20;;;;;;;29.25;3.42;;;;;;;;;;5058190;28;20140;-66
2022/01/04 07:18:48;;;;;;;33.45;3.65;;;;;;;;;;5057012;28;20087;-66
2022/01/04 07:21:16;;;;;;;33.25;4.15;;;;;;;;;;5056735;28;20040;-67
2022/01/04 07:23:48;;;;;;;32.78;3.75;;;;;;;;;;5054686;28;20083;-66
2022/01/04 07:26:16;;;;;;;27.42;4.55;;;;;;;;;;5058333;28;20082;-66
2022/01/04 07:28:42;;;;;;;;;;;;;;;;;;5059257;28;20098;-66
2022/01/04 07:31:16;;;;;;;36.58;3.50;;;;;;;;;;5058392;28;19928;-66
2022/01/04 07:33:44;;;;;;;18.08;4.00;;;;;;;;;;5062133;28;20495;-66
2022/01/04 07:36:11;;;;;;;27.20;3.30;;;;;;;;;;5055529;28;20052;-66
2022/01/04 07:38:39;;;;;;;35.33;3.90;;;;;;;;;;5059891;28;20049;-66
2022/01/04 07:41:05;;;;;;;24.15;3.40;;;;;;;;;;5056703;28;20055;-66
2022/01/04 07:43:32;;;;;;;34.90;4.07;;;;;;;;;;5058568;28;20068;-67
2022/01/04 07:46:02;;;;;;;34.88;4.30;;;;;;;;;;5054487;28;20140;-66
2022/01/04 07:48:29;;;;;;;28.92;3.00;;;;;;;;;;5059580;28;20041;-66
2022/01/04 07:50:58;;;;;;;37.93;3.27;;;;;;;;;;5058640;28;20064;-66
2022/01/04 07:53:28;;;;;;;25.77;3.42;;;;;;;;;;5058999;28;20045;-66
2022/01/04 07:55:54;;;;;;;34.45;3.55;;;;;;;;;;5063138;28;20090;-66
2022/01/04 07:58:22;;;;;;;30.55;3.55;;;;;;;;;;5056550;28;20091;-66
2022/01/04 08:00:50;;;;;;;29.90;4.15;;;;;;;;;;5058189;28;20041;-67
2022/01/04 08:03:16;;;;;;;39.47;4.07;;;;;;;;;;5059457;28;20084;-66
2022/01/04 08:05:43;;;;;;;33.57;2.90;;;;;;;;;;5055985;28;20056;-67
2022/01/04 08:08:10;;;;;;;24.65;3.92;;;;;;;;;;5061108;28;20475;-66
2022/01/04 08:10:37;;;;;;;24.85;3.78;;;;;;;;;;5058441;28;20048;-66
2022/01/04 08:13:03;;;;;;;31.40;4.55;;;;;;;;;;5058180;28;20591;-66
2022/01/04 08:15:30;;;;;;;25.07;3.50;;;;;;;;;;5055747;28;20558;-66
2022/01/04 08:17:57;;;;;;;20.27;2.83;;;;;;;;;;5058269;28;20575;-66
2022/01/04 08:20:27;;;;;;;21.48;3.22;;;;;;;;;;5045455;28;20527;-66
2022/01/04 08:22:54;;;;;;;32.80;3.20;;;;;;;;;;5061460;28;20558;-66
2022/01/04 08:25:21;;;;;;;31.63;3.30;;;;;;;;;;5062875;28;20082;-66
2022/01/04 08:27:47;;;;;;;37.20;3.97;;;;;;;;;;5065005;28;20136;-67
2022/01/04 08:30:14;;;;;;;22.67;3.40;;;;;;;;;;5061277;28;20072;-66
2022/01/04 08:32:41;;;;;;;43.95;5.00;;;;;;;;;;5062291;28;20102;-66
2022/01/04 08:35:07;;;;;;;27.43;3.63;;;;;;;;;;5062605;28;20160;-66
2022/01/04 08:37:34;;;;;;;24.25;3.42;;;;;;;;;;5065173;28;20127;-66
2022/01/04 08:40:01;;;;;;;31.17;4.07;;;;;;;;;;5063046;28;20524;-66
2022/01/04 08:42:27;;;;;;;26.50;4.18;;;;;;;;;;5061822;28;20044;-66
2022/01/04 08:44:55;;;;;;;21.23;2.83;;;;;;;;;;5062381;28;20108;-66
2022/01/04 08:47:22;;;;;;;21.02;2.85;;;;;;;;;;5065040;28;20155;-66
2022/01/04 08:49:49;;;;;;;31.25;3.13;;;;;;;;;;5060373;28;20568;-66
2022/01/04 08:52:16;;;;;;;29.38;3.42;;;;;;;;;;5061890;28;20045;-66
2022/01/04 08:54:43;;;;;;;20.77;3.05;;;;;;;;;;5061267;28;20094;-66
2022/01/04 08:57:09;;;;;;;28.00;3.80;;;;;;;;;;5060872;28;20151;-66
2022/01/04 08:59:36;;;;;;;19.70;3.17;;;;;;;;;;5062084;28;20485;-66
2022/01/04 09:02:02;;;;;;;23.75;3.28;;;;;;;;;;5059076;28;20132;-66
2022/01/04 09:04:29;;;;;;;23.00;2.63;;;;;;;;;;5042202;28;20079;-66
2022/01/04 09:06:56;;;;;;;29.20;3.88;;;;;;;;;;5044533;28;20508;-66
2022/01/04 09:09:23;;;;;;;22.25;3.50;;;;;;;;;;5043820;28;22088;-66
2022/01/04 09:11:49;;;;;;;33.13;4.25;;;;;;;;;;5039097;28;20072;-66
2022/01/04 09:14:41;;;;;;;19.55;3.72;;;;;;;;;;5039459;28;20519;-66
2022/01/04 09:19:54;;;;;;;34.70;3.75;;;;;;;;;;5040022;28;20087;-66
2022/01/04 09:22:20;;;;;;;29.60;2.65;;;;;;;;;;5039557;28;20125;-66
2022/01/04 09:24:50;;;;;;;32.22;3.58;;;;;;;;;;5039488;28;20127;-66
2022/01/04 09:27:17;;;;;;;24.25;3.10;;;;;;;;;;5041552;28;20125;-66
2022/01/04 09:29:43;;;;;;;24.17;3.70;;;;;;;;;;5041676;28;20056;-66
2022/01/04 09:32:13;;;;;;;24.27;3.22;;;;;;;;;;5040243;28;20055;-66
2022/01/04 09:34:40;;;;;;;24.02;3.85;;;;;;;;;;5043910;28;20182;-66
2022/01/04 09:37:07;;;;;;;24.63;3.15;;;;;;;;;;5040156;28;20059;-66
2022/01/04 09:39:34;;;;;;;25.45;3.33;;;;;;;;;;5042867;28;20059;-66
2022/01/04 09:42:00;;;;;;;30.20;3.78;;;;;;;;;;5041065;28;20088;-65
2022/01/04 09:44:27;;;;;;;28.55;3.58;;;;;;;;;;5043185;28;20127;-65
2022/01/04 09:46:54;;;;;;;21.60;3.05;;;;;;;;;;5040676;28;20065;-65
2022/01/04 09:49:21;;;;;;;23.30;3.42;;;;;;;;;;5038734;28;20080;-65
2022/01/04 09:51:48;;;;;;;26.45;3.20;;;;;;;;;;5043424;28;20564;-65
2022/01/04 09:54:15;;;;;;;;;;;;;;;;;;5044818;28;20128;-66
2022/01/04 09:56:41;;;;;;;30.98;3.70;;;;;;;;;;5040191;28;19983;-65
2022/01/04 09:59:08;;;;;;;28.95;3.72;;;;;;;;;;5040102;28;20084;-66
2022/01/04 10:01:37;;;;;;;33.28;3.08;;;;;;;;;;5034639;28;20650;-65
2022/01/04 10:04:16;;;;;;;23.63;3.05;;;;;;;;;;5080169;28;20181;-65
2022/01/04 10:06:56;;;;;;;27.83;3.25;;;;;;;;;;5078605;28;20044;-65
2022/01/04 10:09:34;;;;;;;17.80;3.03;;;;;;;;;;5080548;28;20082;-65
2022/01/04 10:12:00;;;;;;;26.70;3.17;;;;;;;;;;5084656;28;20083;-64
2022/01/04 10:14:28;;;;;;;23.27;3.25;;;;;;;;;;5080752;28;20095;-65
2022/01/04 10:16:56;;;;;;;27.20;3.55;;;;;;;;;;5081791;28;20076;-64
2022/01/04 10:19:32;;;;;;;26.52;3.45;;;;;;;;;;5080890;28;20075;-64
2022/01/04 10:22:11;;;;;;;28.15;4.45;;;;;;;;;;5082396;28;20053;-64
2022/01/04 10:24:38;;;;;;;29.73;3.65;;;;;;;;;;5079447;28;20127;-64
2022/01/04 10:27:23;;;;;;;24.17;4.20;;;;;;;;;;5072951;28;20091;-65
2022/01/04 10:30:10;;;;;;;19.52;3.28;;;;;;;;;;5083565;28;20147;-64
2022/01/04 10:32:43;;;;;;;28.77;3.92;;;;;;;;;;5083867;28;20079;-65
2022/01/04 10:35:10;;;;;;;26.17;3.67;;;;;;;;;;5083241;28;20098;-65
2022/01/04 10:37:39;;;;;;;24.58;4.07;;;;;;;;;;5080728;28;20086;-65
2022/01/04 10:40:11;;;;;;;28.17;3.55;;;;;;;;;;5078211;28;20082;-65
2022/01/04 10:42:38;;;;;;;30.45;3.47;;;;;;;;;;5073746;28;20143;-65
2022/01/04 10:45:21;;;;;;;26.70;3.97;;;;;;;;;;5081836;28;20050;-65
2022/01/04 10:47:52;;;;;;;27.13;3.65;;;;;;;;;;5084581;28;20135;-65
2022/01/04 10:50:29;;;;;;;38.75;3.63;;;;;;;;;;5080677;28;20214;-65
2022/01/04 10:52:57;;;;;;;25.08;3.75;;;;;;;;;;5077450;28;20070;-65
2022/01/04 10:55:23;;;;;;;;;;;;;;;;;;5080224;28;20140;-66
2022/01/04 10:57:49;;;;;;;24.30;3.22;;;;;;;;;;5076208;28;20376;-66
2022/01/04 11:00:17;;;;;;;31.35;3.10;;;;;;;;;;5076412;28;20151;-66
2022/01/04 11:02:44;;;;;;;;;;;;;;;;;;5082532;28;20136;-66
2022/01/04 11:05:14;;;;;;;30.48;3.92;;;;;;;;;;5080716;28;19977;-66
2022/01/04 11:07:57;;;;;;;29.23;3.75;;;;;;;;;;5076226;28;20110;-66
2022/01/04 11:10:24;;;;;;;21.75;3.30;;;;;;;;;;5076792;28;20130;-66
2022/01/04 11:12:52;;;;;;;27.95;3.60;;;;;;;;;;5085180;28;20075;-66
2022/01/04 11:15:19;;;;;;;34.33;4.20;;;;;;;;;;5082174;28;20134;-66
2022/01/04 11:17:46;;;;;;;28.88;3.78;;;;;;;;;;5076582;28;20094;-66
2022/01/04 11:20:19;;;;;;;24.92;3.40;;;;;;;;;;5060658;28;20132;-66
2022/01/04 11:22:46;;;;;;;26.38;3.83;;;;;;;;;;5060300;28;20083;-66
2022/01/04 11:25:21;;;;;;;28.73;4.25;;;;;;;;;;5054898;28;20203;-66
2022/01/04 11:27:49;;;;;;;20.55;3.45;;;;;;;;;;5060870;28;20076;-66
2022/01/04 11:30:28;;;;;;;24.98;3.47;;;;;;;;;;5065087;28;20174;-66
2022/01/04 11:33:22;;;;;;;25.30;3.53;;;;;;;;;;5055368;28;20059;-66
2022/01/04 11:35:49;;;;;;;35.15;3.72;;;;;;;;;;5030530;28;20072;-66
2022/01/04 11:38:32;;;;;;;21.35;2.70;;;;;;;;;;5057812;28;20054;-66
2022/01/04 11:40:58;;;;;;;22.80;2.78;;;;;;;;;;5076649;28;20126;-66
2022/01/04 11:43:27;;;;;;;26.75;3.00;;;;;;;;;;5079177;28;20082;-66
2022/01/04 11:45:53;;;;;;;23.15;3.45;;;;;;;;;;5083284;28;20122;-66
2022/01/04 11:48:32;;;;;;;25.23;3.78;;;;;;;;;;5080306;28;20049;-66
2022/01/04 11:51:01;;;;;;;22.63;3.35;;;;;;;;;;5082385;28;20098;-66
2022/01/04 11:53:27;;;;;;;32.90;3.60;;;;;;;;;;5078351;28;20136;-67
2022/01/04 11:56:00;;;;;;;19.10;3.25;;;;;;;;;;5077001;28;20057;-66
2022/01/04 11:58:40;;;;;;;24.13;3.53;;;;;;;;;;5076416;28;20124;-66
2022/01/04 12:01:07;;;;;;;24.52;3.58;;;;;;;;;;5077196;28;20522;-66
2022/01/04 12:03:44;;;;;;;21.05;3.22;;;;;;;;;;5076924;28;20087;-66
2022/01/04 12:06:12;;;;;;;15.35;2.63;;;;;;;;;;5075873;28;20168;-67
2022/01/04 12:08:41;;;;;;;26.30;3.28;;;;;;;;;;5078100;28;20601;-66
2022/01/04 12:11:26;;;;;;;19.55;3.42;;;;;;;;;;5077881;28;20052;-66
2022/01/04 12:13:54;;;;;;;15.90;2.83;;;;;;;;;;5078741;28;20167;-66
2022/01/04 12:16:32;;;;;;;16.75;3.28;;;;;;;;;;5075833;28;20163;-66
2022/01/04 12:19:01;;;;;;;21.45;3.90;;;;;;;;;;5077670;28;20101;-66
2022/01/04 12:21:27;;;;;;;;;;;;;;;;;;5082072;28;20076;-66
2022/01/04 12:23:54;;;;;;;29.40;3.67;;;;;;;;;;5072350;28;19967;-66
2022/01/04 12:26:21;;;;;;;27.35;3.67;;;;;;;;;;5079762;28;20063;-66
2022/01/04 12:29:00;;;;;;;20.98;3.42;;;;;;;;;;5082686;28;20119;-66
2022/01/04 12:31:31;;;;;;;23.90;3.70;;;;;;;;;;5077610;28;20124;-66
2022/01/04 12:33:58;;;;;;;25.65;3.45;;;;;;;;;;5081000;28;20102;-66
2022/01/04 12:36:25;;;;;;;;;;;;;;;;;;5080487;28;20051;-66
2022/01/04 12:39:01;;;;;;;18.40;4.10;;;;;;;;;;5078525;28;19959;-66
2022/01/04 12:41:30;;;;;;;29.23;4.07;;;;;;;;;;5074151;28;20127;-66
2022/01/04 12:43:57;;;;;;;25.98;3.75;;;;;;;;;;5078547;28;20123;-66
2022/01/04 12:46:27;;;;;;;22.52;3.92;;;;;;;;;;5078642;28;20046;-66
2022/01/04 12:48:56;;;;;;;17.70;3.17;;;;;;;;;;5076975;28;20432;-66
2022/01/04 12:51:30;;;;;;;29.20;4.40;;;;;;;;;;5074164;28;20514;-66
2022/01/04 12:54:06;;;;;;;27.05;4.22;;;;;;;;;;5077810;28;20116;-66
2022/01/04 12:56:39;;;;;;;20.38;3.58;;;;;;;;;;5079896;28;20131;-66
2022/01/04 12:59:05;;;;;;;33.47;4.60;;;;;;;;;;5075477;28;20123;-66
2022/01/04 13:01:32;;;;;;;28.33;3.38;;;;;;;;;;5082270;28;20045;-66
2022/01/04 13:03:59;;;;;;;29.63;3.53;;;;;;;;;;5075667;28;20055;-66
2022/01/04 13:06:27;;;;;;;26.02;3.65;;;;;;;;;;5080771;28;20086;-66
2022/01/04 13:08:54;;;;;;;18.08;2.83;;;;;;;;;;5083518;28;20072;-66
2022/01/04 13:11:21;;;;;;;19.35;3.58;;;;;;;;;;5084139;28;20724;-66
2022/01/04 13:13:56;;;;;;;24.73;3.50;;;;;;;;;;5084563;28;20147;-66
2022/01/04 13:16:30;;;;;;;23.48;3.13;;;;;;;;;;5082165;28;20416;-66
2022/01/04 13:19:10;;;;;;;25.05;3.33;;;;;;;;;;5082498;28;20047;-66
2022/01/04 13:21:36;;;;;;;22.85;4.07;;;;;;;;;;5081508;28;20143;-66
2022/01/04 13:24:03;;;;;;;20.40;4.50;;;;;;;;;;5081314;28;20551;-66
2022/01/04 13:26:29;;;;;;;21.35;6.22;;;;;;;;;;5079978;28;20084;-66
2022/01/04 13:28:57;;;;;;;18.38;3.65;;;;;;;;;;5078717;28;20091;-66
2022/01/04 13:31:24;;;;;;;21.70;3.30;;;;;;;;;;5077981;28;20086;-66
2022/01/04 13:33:51;;;;;;;22.90;3.92;;;;;;;;;;5080948;28;20041;-66
2022/01/04 13:36:20;;;;;;;21.65;3.05;;;;;;;;;;5078885;28;20055;-66
2022/01/04 13:38:50;;;;;;;18.95;3.30;;;;;;;;;;5083467;28;20131;-66
2022/01/04 13:41:33;;;;;;;28.77;3.70;;;;;;;;;;5076167;28;20479;-66
2022/01/04 13:44:01;;;;;;;18.38;2.88;;;;;;;;;;5081393;28;20123;-66
2022/01/04 13:46:27;;;;;;;28.00;3.17;;;;;;;;;;5083089;28;20083;-66
2022/01/04 13:48:54;;;;;;;19.40;3.00;;;;;;;;;;5084207;28;20048;-66
2022/01/04 13:51:24;;;;;;;18.23;3.78;;;;;;;;;;5081338;28;20131;-66
2022/01/04 13:53:58;;;;;;;16.98;4.53;;;;;;;;;;5081284;28;20052;-66
2022/01/04 13:56:31;;;;;;;26.60;3.90;;;;;;;;;;5079749;28;20105;-66
2022/01/04 13:58:58;;;;;;;23.08;5.57;;;;;;;;;;5081249;28;20072;-66
2022/01/04 14:01:26;;;;;;;21.95;3.90;;;;;;;;;;5083149;28;20140;-66
2022/01/04 14:03:59;;;;;;;25.98;3.65;;;;;;;;;;5079119;28;20052;-66
2022/01/04 14:06:26;;;;;;;15.35;3.33;;;;;;;;;;5076116;28;20083;-66
2022/01/04 14:08:53;;;;;;;21.10;3.25;;;;;;;;;;5074564;28;20048;-66
2022/01/04 14:11:23;;;;;;;25.83;3.45;;;;;;;;;;5075016;28;20475;-66
2022/01/04 14:13:50;;;;;;;24.30;3.72;;;;;;;;;;5080951;28;20082;-66
2022/01/04 14:16:18;;;;;;;26.15;3.70;;;;;;;;;;5075780;28;20052;-66
2022/01/04 14:19:03;;;;;;;17.65;3.83;;;;;;;;;;5076783;28;20091;-66
2022/01/04 14:21:34;;;;;;;29.70;3.40;;;;;;;;;;5076951;28;20082;-66
2022/01/04 14:24:02;;;;;;;26.05;3.92;;;;;;;;;;5074744;28;20564;-66
2022/01/04 14:26:29;;;;;;;22.02;5.47;;;;;;;;;;5081893;28;20137;-66
2022/01/04 14:28:56;;;;;;;17.53;4.27;;;;;;;;;;5079373;28;20852;-66
2022/01/04 14:31:23;;;;;;;25.67;4.90;;;;;;;;;;5080846;28;20290;-66
2022/01/04 14:33:49;;;;;;;32.97;5.03;;;;;;;;;;5080781;28;20056;-66
2022/01/04 14:36:24;;;;;;;19.50;4.03;;;;;;;;;;5079254;28;20147;-66
2022/01/04 14:38:50;;;;;;;21.45;3.67;;;;;;;;;;5080683;28;20048;-66
2022/01/04 14:41:17;;;;;;;30.70;4.25;;;;;;;;;;5061578;28;20052;-66
2022/01/04 14:43:47;;;;;;;28.85;3.80;;;;;;;;;;5079296;28;20086;-66
2022/01/04 14:46:13;;;;;;;25.80;3.90;;;;;;;;;;5076708;28;20472;-66
2022/01/04 14:48:39;;;;;;;31.85;4.75;;;;;;;;;;5077938;28;20040;-66